Christina O — C6FN7 — position and weather

sailwx.info

Track history (hours):
 
Tides and Currents Weather Stations Pressure Air Temp Water Temp Dewpoint Dewpoint Depression Visibility Wind Speed Wind Dir Waves Ship Positions

Christina O

Operator: V Ships Leisure SAM

Last reported at 2016-Nov-28 09:24 UTC. Time now 2016-Dec-08 06:00 UTC.
Position N 32°11' W 117°35'.
Warning: this ship's position is 9 days out of date.

Length 186 m; draft 6.1 m.

Type: Passenger vessel. MMSI: 308322000.

Date/timePositionNaut miles runAvg speedWind from/ knotsBaromVisibWave heightAir tempDewpointWater temp
2016-Nov-28 09:24N 32°11' W 117°35'1214.5
2016-Nov-28 08:33N 32°22' W 117°40'1414.4
2016-Nov-28 07:33N 32°35' W 117°47'1514.9
2016-Nov-28 06:33N 32°49' W 117°53'1514.8
2016-Nov-28 05:33N 33°03' W 117°59'1514.9
2016-Nov-28 04:33N 33°17' W 118°05'1514.8
2016-Nov-28 03:33N 33°31' W 118°11'1212.4
2016-Nov-28 02:34N 33°43' W 118°15'3 0.2
2016-Nov-27 13:33N 33°40' W 118°14'8 8.3
2016-Nov-27 12:33N 33°33' W 118°09'9 9.1
2016-Nov-27 11:33N 33°24' W 118°05'1110.4
2016-Nov-27 10:32N 33°14' W 118°01'1010.3
2016-Nov-27 09:33N 33°05' W 117°56'10 9.7
2016-Nov-27 08:33N 32°56' W 117°53'10 9.8
2016-Nov-27 07:33N 32°47' W 117°48'1010.4
2016-Nov-27 06:33N 32°37' W 117°44'1212.1
2016-Nov-27 05:33N 32°26' W 117°38'19813.2
2016-Nov-26 14:34N 29°20' W 116°19'1414.2
2016-Nov-26 13:34N 29°07' W 116°13'1414.1
2016-Nov-26 12:33N 28°53' W 116°08'1814.0
2016-Nov-26 11:17N 28°37' W 116°00'1413.7
2016-Nov-26 10:14N 28°23' W 115°55'  
Track history (hours):
 
Tides and Currents Weather Stations Pressure Air Temp Water Temp Dewpoint Dewpoint Depression Visibility Wind Speed Wind Dir Waves Ship Positions

Christina O

Operator: V Ships Leisure SAM

Last reported at 2016-Nov-28 09:24 UTC. Time now 2016-Dec-08 06:00 UTC.
Position N 32°11' W 117°35'.
Warning: this ship's position is 9 days out of date.

Length 186 m; draft 6.1 m.

Type: Passenger vessel. MMSI: 308322000.

Date/timePositionNaut miles runAvg speedWind from/ knotsBaromVisibWave heightAir tempDewpointWater temp
2016-Nov-28 09:24N 32°11' W 117°35'1214.5
2016-Nov-28 08:33N 32°22' W 117°40'1414.4
2016-Nov-28 07:33N 32°35' W 117°47'1514.9
2016-Nov-28 06:33N 32°49' W 117°53'1514.8
2016-Nov-28 05:33N 33°03' W 117°59'1514.9
2016-Nov-28 04:33N 33°17' W 118°05'1514.8
2016-Nov-28 03:33N 33°31' W 118°11'1212.4
2016-Nov-28 02:34N 33°43' W 118°15'3 0.2
2016-Nov-27 13:33N 33°40' W 118°14'8 8.3
2016-Nov-27 12:33N 33°33' W 118°09'9 9.1
2016-Nov-27 11:33N 33°24' W 118°05'1110.4
2016-Nov-27 10:32N 33°14' W 118°01'1010.3
2016-Nov-27 09:33N 33°05' W 117°56'10 9.7
2016-Nov-27 08:33N 32°56' W 117°53'10 9.8
2016-Nov-27 07:33N 32°47' W 117°48'1010.4
2016-Nov-27 06:33N 32°37' W 117°44'1212.1
2016-Nov-27 05:33N 32°26' W 117°38'19813.2
2016-Nov-26 14:34N 29°20' W 116°19'1414.2
2016-Nov-26 13:34N 29°07' W 116°13'1414.1
2016-Nov-26 12:33N 28°53' W 116°08'1814.0
2016-Nov-26 11:17N 28°37' W 116°00'1413.7
2016-Nov-26 10:14N 28°23' W 115°55'  

Dump ship's entire track history